createdAt,value
2023-01-10T00:00:41.575Z,43.97
2023-01-10T00:03:10.418Z,45.67
2023-01-10T00:05:38.845Z,51.00
2023-01-10T00:08:07.053Z,48.73
2023-01-10T00:10:35.201Z,48.93
2023-01-10T00:13:28.454Z,47.63
2023-01-10T00:15:56.414Z,48.93
2023-01-10T00:18:23.535Z,46.73
2023-01-10T00:20:50.629Z,49.80
2023-01-10T00:23:20.442Z,51.13
2023-01-10T00:25:47.535Z,48.60
2023-01-10T00:28:21.246Z,49.17
2023-01-10T00:31:01.330Z,47.53
2023-01-10T00:33:33.524Z,47.40
2023-01-10T00:36:01.531Z,44.43
2023-01-10T00:38:28.769Z,49.77
2023-01-10T00:40:55.852Z,47.70
2023-01-10T00:43:41.746Z,52.53
2023-01-10T00:46:09.579Z,44.20
2023-01-10T00:48:37.365Z,49.03
2023-01-10T00:51:05.194Z,49.27
2023-01-10T00:53:32.133Z,44.40
2023-01-10T00:55:59.296Z,45.67
2023-01-10T00:58:26.073Z,44.80
2023-01-10T01:00:53.000Z,44.00
2023-01-10T01:03:21.752Z,47.17
2023-01-10T01:05:49.232Z,45.87
2023-01-10T01:08:18.224Z,42.83
2023-01-10T01:10:47.201Z,48.50
2023-01-10T01:13:20.515Z,45.33
2023-01-10T01:15:48.332Z,41.83
2023-01-10T01:18:21.133Z,43.43
2023-01-10T01:20:52.482Z,44.80
2023-01-10T01:23:19.425Z,41.60
2023-01-10T01:25:49.810Z,44.37
2023-01-10T01:28:16.830Z,42.90
2023-01-10T01:30:44.017Z,48.83
2023-01-10T01:33:11.180Z,42.23
2023-01-10T01:35:38.244Z,43.90
2023-01-10T01:38:05.384Z,43.80
2023-01-10T01:40:32.752Z,44.03
2023-01-10T01:42:59.869Z,42.70
2023-01-10T01:45:29.793Z,47.53
2023-01-10T01:48:20.817Z,39.37
2023-01-10T01:51:11.977Z,45.00
2023-01-10T01:53:39.037Z,44.33
2023-01-10T01:56:22.112Z,42.23
2023-01-10T01:58:58.610Z,44.23
2023-01-10T02:01:26.486Z,41.00
2023-01-10T02:04:03.186Z,40.30
2023-01-10T02:06:30.383Z,39.93
2023-01-10T02:09:08.648Z,44.20
2023-01-10T02:11:35.516Z,42.03
2023-01-10T02:14:07.024Z,46.07
2023-01-10T02:16:34.226Z,40.03
2023-01-10T02:19:01.343Z,42.10
2023-01-10T02:22:05.601Z,37.40
2023-01-10T02:24:55.738Z,40.23
2023-01-10T02:27:32.014Z,38.97
2023-01-10T02:30:35.735Z,39.43
2023-01-10T02:33:34.515Z,39.43
2023-01-10T02:36:27.322Z,38.80
2023-01-10T02:39:12.477Z,40.47
2023-01-10T02:41:46.754Z,44.23
2023-01-10T02:44:39.695Z,40.90
2023-01-10T02:47:09.019Z,43.83
2023-01-10T02:49:49.898Z,37.43
2023-01-10T02:52:23.545Z,41.97
2023-01-10T02:54:55.948Z,36.97
2023-01-10T02:57:50.630Z,42.90
2023-01-10T03:00:35.890Z,39.80
2023-01-10T03:03:14.843Z,42.70
2023-01-10T03:06:07.821Z,40.30
2023-01-10T03:08:48.664Z,41.87
2023-01-10T03:11:15.706Z,42.63
2023-01-10T03:14:00.980Z,41.93
2023-01-10T03:16:32.443Z,39.70
2023-01-10T03:19:11.725Z,36.57
2023-01-10T03:21:41.046Z,36.90
2023-01-10T03:24:17.491Z,40.33
2023-01-10T03:26:56.371Z,38.67
2023-01-10T03:29:34.046Z,42.17
2023-01-10T03:32:04.907Z,39.57
2023-01-10T03:34:32.684Z,36.17
2023-01-10T03:37:23.867Z,44.43
2023-01-10T03:40:14.614Z,43.50
2023-01-10T03:43:29.074Z,38.93
2023-01-10T03:46:03.267Z,40.70
2023-01-10T03:48:34.776Z,39.63
2023-01-10T03:51:04.446Z,39.10
2023-01-10T03:53:33.066Z,35.97
2023-01-10T03:56:00.546Z,39.30
2023-01-10T03:58:29.733Z,44.03
2023-01-10T04:00:57.155Z,37.57
2023-01-10T04:03:24.106Z,43.33
2023-01-10T04:05:50.928Z,41.67
2023-01-10T04:08:17.746Z,42.93
2023-01-10T04:10:44.584Z,43.27
2023-01-10T04:13:11.523Z,42.83
2023-01-10T04:15:39.552Z,42.80
2023-01-10T04:18:06.365Z,34.83
2023-01-10T04:20:33.204Z,43.00
2023-01-10T04:23:00.026Z,41.60
2023-01-10T04:25:26.885Z,37.53
2023-01-10T04:27:53.822Z,39.27
2023-01-10T04:30:20.886Z,43.83
2023-01-10T04:32:48.106Z,40.13
2023-01-10T04:35:15.442Z,41.73
2023-01-10T04:37:43.532Z,42.97
2023-01-10T04:40:11.228Z,46.00
2023-01-10T04:42:38.196Z,41.67
2023-01-10T04:45:05.707Z,41.37
2023-01-10T04:47:32.768Z,39.90
2023-01-10T04:49:59.622Z,43.43
2023-01-10T04:52:28.245Z,45.80
2023-01-10T04:54:55.050Z,43.67
2023-01-10T04:57:21.962Z,38.50
2023-01-10T04:59:49.052Z,38.43
2023-01-10T05:02:16.723Z,43.17
2023-01-10T05:04:43.655Z,38.57
2023-01-10T05:07:10.529Z,37.80
2023-01-10T05:09:37.790Z,39.23
2023-01-10T05:12:04.926Z,36.73
2023-01-10T05:14:32.962Z,40.03
2023-01-10T05:17:00.113Z,39.47
2023-01-10T05:19:27.167Z,36.10
2023-01-10T05:21:54.065Z,43.57
2023-01-10T05:24:20.852Z,36.67
2023-01-10T05:26:47.748Z,41.67
2023-01-10T05:29:15.011Z,37.30
2023-01-10T05:31:42.466Z,37.27
2023-01-10T05:34:12.775Z,38.03
2023-01-10T05:36:40.406Z,37.33
2023-01-10T05:39:07.483Z,38.20
2023-01-10T05:41:34.332Z,40.07
2023-01-10T05:44:01.216Z,38.43
2023-01-10T05:46:28.388Z,43.80
2023-01-10T05:48:55.487Z,39.63
2023-01-10T05:51:22.300Z,42.33
2023-01-10T05:53:50.296Z,45.90
2023-01-10T05:56:17.389Z,46.97
2023-01-10T05:58:47.236Z,49.83
2023-01-10T06:01:16.684Z,43.70
2023-01-10T06:03:43.942Z,41.93
2023-01-10T06:06:11.061Z,38.27
2023-01-10T06:08:38.031Z,47.57
2023-01-10T06:11:06.137Z,44.83
2023-01-10T06:13:33.679Z,44.83
2023-01-10T06:16:00.719Z,43.33
2023-01-10T06:18:27.729Z,44.10
2023-01-10T06:20:54.564Z,33.13
2023-01-10T06:23:21.706Z,45.47
2023-01-10T06:25:48.525Z,46.07
2023-01-10T06:28:15.342Z,41.23
2023-01-10T06:30:43.565Z,37.17
2023-01-10T06:33:11.462Z,42.80
2023-01-10T06:35:39.389Z,44.20
2023-01-10T06:38:06.267Z,39.20
2023-01-10T06:40:33.289Z,44.33
2023-01-10T06:43:00.278Z,40.20
2023-01-10T06:45:27.297Z,47.77
2023-01-10T06:47:54.134Z,45.77
2023-01-10T06:50:20.977Z,48.93
2023-01-10T06:53:02.265Z,44.40
2023-01-10T06:55:29.717Z,49.27
2023-01-10T06:58:01.451Z,47.80
2023-01-10T07:00:29.586Z,51.50
2023-01-10T07:02:59.196Z,38.87
2023-01-10T07:05:26.237Z,49.07
2023-01-10T07:07:54.103Z,51.57
2023-01-10T07:10:21.102Z,47.33
2023-01-10T07:12:47.885Z,43.83
2023-01-10T07:15:14.675Z,50.13
2023-01-10T07:17:41.488Z,48.63
2023-01-10T07:20:09.099Z,45.97
2023-01-10T07:22:35.893Z,53.37
2023-01-10T07:25:03.312Z,55.03
2023-01-10T07:27:33.539Z,58.33
2023-01-10T07:30:00.363Z,62.23
2023-01-10T07:32:27.875Z,56.93
2023-01-10T07:34:54.680Z,48.83
2023-01-10T07:37:21.578Z,48.33
2023-01-10T07:39:49.127Z,39.47
2023-01-10T07:42:15.924Z,47.37
2023-01-10T07:44:42.734Z,49.83
2023-01-10T07:47:09.575Z,84.23
2023-01-10T07:49:36.365Z,82.40
2023-01-10T07:52:03.328Z,34.90
2023-01-10T07:54:30.160Z,52.07
2023-01-10T07:56:57.169Z,99.03
2023-01-10T07:59:24.023Z,87.00
2023-01-10T08:01:50.925Z,114.93
2023-01-10T08:04:17.706Z,54.90
2023-01-10T08:06:44.497Z,50.57
2023-01-10T08:09:11.429Z,41.53
2023-01-10T08:11:39.733Z,40.17
2023-01-10T08:14:08.281Z,36.40
2023-01-10T08:16:35.145Z,31.40
2023-01-10T08:19:01.944Z,39.17
2023-01-10T08:21:28.757Z,47.73
2023-01-10T08:23:55.559Z,41.83
2023-01-10T08:26:22.442Z,49.07
2023-01-10T08:28:49.234Z,30.80
2023-01-10T08:31:16.141Z,58.57
2023-01-10T08:33:42.992Z,40.83
2023-01-10T08:36:22.121Z,44.30
2023-01-10T08:38:50.980Z,40.63
2023-01-10T08:41:17.933Z,47.67
2023-01-10T08:43:44.782Z,49.27
2023-01-10T08:46:11.718Z,49.87
2023-01-10T08:48:38.645Z,77.77
2023-01-10T08:51:08.062Z,55.80
2023-01-10T08:53:35.074Z,60.03
2023-01-10T08:56:04.222Z,53.33
2023-01-10T08:58:32.273Z,65.33
2023-01-10T09:00:59.090Z,61.47
2023-01-10T09:03:25.906Z,57.37
2023-01-10T09:05:52.803Z,53.43
2023-01-10T09:08:20.835Z,61.37
2023-01-10T09:10:48.684Z,64.17
2023-01-10T09:13:15.737Z,54.57
2023-01-10T09:15:43.500Z,49.40
2023-01-10T09:18:12.908Z,48.50
2023-01-10T09:20:41.583Z,49.57
2023-01-10T09:23:11.600Z,55.47
2023-01-10T09:25:38.729Z,52.77
2023-01-10T09:28:06.164Z,52.13
2023-01-10T09:30:33.114Z,58.33
2023-01-10T09:33:00.503Z,42.87
2023-01-10T09:35:29.457Z,55.30
2023-01-10T09:37:58.063Z,48.70
2023-01-10T09:40:55.737Z,43.90
2023-01-10T09:43:47.517Z,45.83
2023-01-10T09:46:14.281Z,35.07
2023-01-10T09:48:55.439Z,41.80
2023-01-10T09:51:37.396Z,43.63
2023-01-10T09:54:12.705Z,41.57
2023-01-10T09:56:40.887Z,33.23
2023-01-10T09:59:49.031Z,41.90
2023-01-10T10:02:39.528Z,35.00
2023-01-10T10:05:28.359Z,29.20
2023-01-10T10:07:58.458Z,37.97
2023-01-10T10:10:29.786Z,41.90
2023-01-10T10:13:26.872Z,51.63
2023-01-10T10:16:02.407Z,44.40
2023-01-10T10:18:48.449Z,43.47
2023-01-10T10:21:38.570Z,45.90
2023-01-10T10:24:11.228Z,46.10
2023-01-10T10:26:59.710Z,62.23
2023-01-10T10:29:49.965Z,46.43
2023-01-10T10:32:42.449Z,41.57
2023-01-10T10:35:12.310Z,60.47
2023-01-10T10:37:48.183Z,48.00
2023-01-10T10:40:15.062Z,64.20
2023-01-10T10:42:57.093Z,59.73
2023-01-10T10:45:40.789Z,90.30
2023-01-10T10:48:19.501Z,72.13
2023-01-10T10:51:32.810Z,96.53
2023-01-10T10:53:59.742Z,307.40
2023-01-10T10:56:27.015Z,95.33
2023-01-10T10:58:56.713Z,74.57
2023-01-10T11:01:26.336Z,63.63
2023-01-10T11:03:58.792Z,51.10
2023-01-10T11:06:28.659Z,48.67
2023-01-10T11:09:02.146Z,48.10
2023-01-10T11:11:39.751Z,43.03
2023-01-10T11:14:08.606Z,37.67
2023-01-10T11:16:41.770Z,30.70
2023-01-10T11:19:23.361Z,45.10
2023-01-10T11:22:06.184Z,42.37
2023-01-10T11:24:36.753Z,40.13
2023-01-10T11:27:15.502Z,45.73
2023-01-10T11:29:48.150Z,56.90
2023-01-10T11:32:19.321Z,40.23
2023-01-10T11:34:59.099Z,52.90
2023-01-10T11:37:31.582Z,46.43
2023-01-10T11:40:13.801Z,51.73
2023-01-10T11:42:40.835Z,58.27
2023-01-10T11:45:29.866Z,47.27
2023-01-10T11:48:32.905Z,39.80
2023-01-10T11:51:26.071Z,39.17
2023-01-10T11:54:07.284Z,33.20
2023-01-10T11:56:39.946Z,39.53
2023-01-10T11:59:18.490Z,31.50
2023-01-10T12:02:12.455Z,38.93
2023-01-10T12:04:47.050Z,33.50
2023-01-10T12:07:14.088Z,35.43
2023-01-10T12:09:53.912Z,34.27
2023-01-10T12:12:25.601Z,36.30
2023-01-10T12:14:54.189Z,32.67
2023-01-10T12:17:25.728Z,28.57
2023-01-10T12:19:55.397Z,32.67
2023-01-10T12:22:37.085Z,34.20
2023-01-10T12:25:15.528Z,35.50
2023-01-10T12:27:44.798Z,38.20
2023-01-10T12:30:25.819Z,33.07
2023-01-10T12:32:55.005Z,27.10
2023-01-10T12:35:38.898Z,32.13
2023-01-10T12:38:46.387Z,33.40
2023-01-10T12:41:39.186Z,31.43
2023-01-10T12:44:16.402Z,34.80
2023-01-10T12:47:07.406Z,27.70
2023-01-10T12:49:48.022Z,36.10
2023-01-10T12:52:24.444Z,29.53
2023-01-10T12:54:51.321Z,39.53
2023-01-10T12:57:32.110Z,33.00
2023-01-10T13:00:03.818Z,36.60
2023-01-10T13:02:44.258Z,34.90
2023-01-10T13:05:24.619Z,32.03
2023-01-10T13:07:54.545Z,29.30
2023-01-10T13:10:23.898Z,27.40
2023-01-10T13:12:57.759Z,27.13
2023-01-10T13:15:57.420Z,33.03
2023-01-10T13:18:26.022Z,32.17
2023-01-10T13:21:13.557Z,38.20
2023-01-10T13:23:49.012Z,35.23
2023-01-10T13:26:16.213Z,42.40
2023-01-10T13:29:00.612Z,26.20
2023-01-10T13:31:31.959Z,33.73
2023-01-10T13:34:00.729Z,33.37
2023-01-10T13:36:31.863Z,30.80
2023-01-10T13:39:02.175Z,32.30
2023-01-10T13:42:18.753Z,30.20
2023-01-10T13:59:02.269Z,30.97
2023-01-10T14:01:55.348Z,42.20
2023-01-10T14:04:31.608Z,70.73
2023-01-10T14:07:04.685Z,146.23
2023-01-10T14:09:38.347Z,330.93
2023-01-10T14:12:16.955Z,222.80
2023-01-10T14:15:01.574Z,417.83
2023-01-10T14:17:36.870Z,204.80
2023-01-10T14:20:17.377Z,75.27
2023-01-10T14:22:57.741Z,84.33
2023-01-10T14:25:27.490Z,93.70
2023-01-10T14:27:55.608Z,89.57
2023-01-10T14:30:33.093Z,84.87
2023-01-10T14:33:06.309Z,86.20
2023-01-10T14:35:39.463Z,97.73
2023-01-10T14:38:13.503Z,86.30
2023-01-10T14:40:46.143Z,72.67
2023-01-10T14:43:17.123Z,68.07
2023-01-10T14:45:56.090Z,97.73
2023-01-10T14:48:32.864Z,51.53
2023-01-10T14:51:23.540Z,47.67
2023-01-10T14:53:57.549Z,46.33
2023-01-10T14:56:28.232Z,240.00
2023-01-10T14:58:55.178Z,216.97
2023-01-10T15:01:26.037Z,169.80
2023-01-10T15:03:54.208Z,83.40
2023-01-10T15:06:21.322Z,90.97
2023-01-10T15:08:56.920Z,79.40
2023-01-10T15:11:26.719Z,64.03
2023-01-10T15:14:00.127Z,59.07
2023-01-10T15:16:28.715Z,52.70
2023-01-10T15:18:56.745Z,57.67
2023-01-10T15:21:24.483Z,61.87
2023-01-10T15:23:51.533Z,54.13
2023-01-10T15:26:26.227Z,45.90
2023-01-10T15:29:14.596Z,44.33
2023-01-10T15:31:42.149Z,46.10
2023-01-10T15:34:20.648Z,49.60
2023-01-10T15:36:54.567Z,44.43
2023-01-10T15:39:28.358Z,44.53
2023-01-10T15:42:09.833Z,45.03
2023-01-10T15:44:38.629Z,46.53
2023-01-10T15:47:06.975Z,50.50
2023-01-10T15:49:33.911Z,52.43
2023-01-10T15:52:00.772Z,55.00
2023-01-10T15:54:30.784Z,53.10
2023-01-10T15:57:06.736Z,48.77
2023-01-10T15:59:38.241Z,54.83
2023-01-10T16:02:32.488Z,58.50
2023-01-10T16:05:10.203Z,54.10
2023-01-10T16:07:44.072Z,54.47
2023-01-10T16:10:21.558Z,58.17
2023-01-10T16:13:06.921Z,55.20
2023-01-10T16:15:38.169Z,84.07
2023-01-10T16:18:05.288Z,61.67
2023-01-10T16:20:36.823Z,49.97
2023-01-10T16:23:08.839Z,55.37
2023-01-10T16:25:40.284Z,60.90
2023-01-10T16:28:07.183Z,58.50
2023-01-10T16:30:34.974Z,61.83
2023-01-10T16:33:11.983Z,51.43
2023-01-10T16:35:39.411Z,53.87
2023-01-10T16:38:06.425Z,52.80
2023-01-10T16:40:51.622Z,53.43
2023-01-10T16:43:19.180Z,71.33
2023-01-10T16:45:50.975Z,69.63
2023-01-10T16:48:19.550Z,63.13
2023-01-10T16:50:48.582Z,56.80
2023-01-10T16:53:17.897Z,64.23
2023-01-10T16:55:50.815Z,56.27
2023-01-10T16:58:19.303Z,52.97
2023-01-10T17:00:48.819Z,59.67
2023-01-10T17:03:18.512Z,60.50
2023-01-10T17:05:45.511Z,58.87
2023-01-10T17:08:22.315Z,62.93
2023-01-10T17:10:59.713Z,61.80
2023-01-10T17:13:30.920Z,53.47
2023-01-10T17:15:58.785Z,55.93
2023-01-10T17:18:28.587Z,59.33
2023-01-10T17:20:57.206Z,59.20
2023-01-10T17:23:25.369Z,60.20
2023-01-10T17:26:02.430Z,54.03
2023-01-10T17:28:29.489Z,65.67
2023-01-10T17:30:57.460Z,65.23
2023-01-10T17:33:25.509Z,63.23
2023-01-10T17:35:56.688Z,65.27
2023-01-10T17:38:25.557Z,65.73
2023-01-10T17:40:53.202Z,70.63
2023-01-10T17:43:21.213Z,66.03
2023-01-10T17:45:50.823Z,71.20
2023-01-10T17:48:18.872Z,66.57
2023-01-10T17:50:47.786Z,64.53
2023-01-10T17:53:16.723Z,69.53
2023-01-10T17:55:44.931Z,76.77
2023-01-10T17:58:11.761Z,86.17
2023-01-10T18:00:38.844Z,76.00
2023-01-10T18:03:06.434Z,83.33
2023-01-10T18:05:35.178Z,73.10
2023-01-10T18:08:02.966Z,73.23
2023-01-10T18:10:30.185Z,76.73
2023-01-10T18:12:57.099Z,75.73
2023-01-10T18:15:24.726Z,85.33
2023-01-10T18:17:52.252Z,80.07
2023-01-10T18:20:19.457Z,82.37
2023-01-10T18:23:05.160Z,82.93
2023-01-10T18:25:32.103Z,77.70
2023-01-10T18:28:00.224Z,75.57
2023-01-10T18:30:27.119Z,98.87
2023-01-10T18:32:54.883Z,80.23
2023-01-10T18:35:22.536Z,85.80
2023-01-10T18:37:49.510Z,80.77
2023-01-10T18:40:16.623Z,76.40
2023-01-10T18:42:43.543Z,81.03
2023-01-10T18:45:10.743Z,82.17
2023-01-10T18:47:37.642Z,80.10
2023-01-10T18:50:05.342Z,75.70
2023-01-10T18:52:32.268Z,84.27
2023-01-10T18:55:00.922Z,83.80
2023-01-10T18:57:32.524Z,75.10
2023-01-10T18:59:59.449Z,77.17
2023-01-10T19:02:26.376Z,84.37
2023-01-10T19:04:53.198Z,96.00
2023-01-10T19:07:19.995Z,97.17
2023-01-10T19:09:46.873Z,104.00
2023-01-10T19:12:13.888Z,99.00
2023-01-10T19:14:40.684Z,82.10
2023-01-10T19:17:07.534Z,77.57
2023-01-10T19:19:34.492Z,73.83
2023-01-10T19:22:01.407Z,74.50
2023-01-10T19:24:29.799Z,76.60
2023-01-10T19:26:57.137Z,76.20
2023-01-10T19:29:24.663Z,81.00
2023-01-10T19:31:52.804Z,81.07
2023-01-10T19:34:19.704Z,75.13
2023-01-10T19:36:46.574Z,81.03
2023-01-10T19:39:14.253Z,79.03
2023-01-10T19:41:42.078Z,80.67
2023-01-10T19:44:14.537Z,82.73
2023-01-10T19:46:43.969Z,92.67
2023-01-10T19:49:19.401Z,101.83
2023-01-10T19:51:56.018Z,86.63
2023-01-10T19:54:26.936Z,73.70
2023-01-10T19:56:53.779Z,92.53
2023-01-10T19:59:20.580Z,80.67
2023-01-10T20:01:47.994Z,96.53
2023-01-10T20:04:15.048Z,75.27
2023-01-10T20:06:42.468Z,55.30
2023-01-10T20:09:12.255Z,66.80
2023-01-10T20:11:40.496Z,53.00
2023-01-10T20:14:11.276Z,65.20
2023-01-10T20:16:38.175Z,66.73
2023-01-10T20:19:09.379Z,81.03
2023-01-10T20:21:37.518Z,89.20
2023-01-10T20:24:12.258Z,81.07
2023-01-10T20:26:39.607Z,98.33
2023-01-10T20:29:06.756Z,87.90
2023-01-10T20:31:34.024Z,86.73
2023-01-10T20:34:01.326Z,79.10
2023-01-10T20:36:28.556Z,88.13
2023-01-10T20:38:55.962Z,77.67
2023-01-10T20:41:26.512Z,68.40
2023-01-10T20:43:54.385Z,90.93
2023-01-10T20:46:24.519Z,86.67
2023-01-10T20:48:52.465Z,90.70
2023-01-10T20:51:22.667Z,80.33
2023-01-10T20:53:50.610Z,76.33
2023-01-10T20:56:25.074Z,79.87
2023-01-10T20:58:53.738Z,81.30
2023-01-10T21:01:33.517Z,90.53
2023-01-10T21:04:02.326Z,85.37
2023-01-10T21:06:29.498Z,104.27
2023-01-10T21:08:56.573Z,97.13
2023-01-10T21:11:24.045Z,90.77
2023-01-10T21:13:51.141Z,88.53
2023-01-10T21:16:20.225Z,84.17
2023-01-10T21:18:48.636Z,77.20
2023-01-10T21:21:18.751Z,86.03
2023-01-10T21:23:45.622Z,85.57
2023-01-10T21:26:14.745Z,73.83
2023-01-10T21:28:47.715Z,62.30
2023-01-10T21:31:16.944Z,63.80
2023-01-10T21:33:43.992Z,75.60
2023-01-10T21:36:12.788Z,69.90
2023-01-10T21:38:40.591Z,74.17
2023-01-10T21:41:40.292Z,81.83
2023-01-10T21:44:08.552Z,67.87
2023-01-10T21:46:35.694Z,69.13
2023-01-10T21:49:03.686Z,77.27
2023-01-10T21:51:30.611Z,78.00
2023-01-10T21:53:57.851Z,76.37
2023-01-10T21:56:24.774Z,69.23
2023-01-10T21:58:52.367Z,70.73
2023-01-10T22:01:19.301Z,68.07
2023-01-10T22:03:46.705Z,54.33
2023-01-10T22:06:14.142Z,69.93
2023-01-10T22:08:41.101Z,61.47
2023-01-10T22:11:10.527Z,62.60
2023-01-10T22:13:38.281Z,83.47
2023-01-10T22:16:05.652Z,62.60
2023-01-10T22:18:33.004Z,72.03
2023-01-10T22:21:00.264Z,65.63
2023-01-10T22:23:30.372Z,66.47
2023-01-10T22:26:10.032Z,60.03
2023-01-10T22:28:37.132Z,64.10
2023-01-10T22:31:04.917Z,58.93
2023-01-10T22:33:37.817Z,61.43
2023-01-10T22:36:17.104Z,63.40
2023-01-10T22:38:45.156Z,69.70
2023-01-10T22:41:13.611Z,77.80
2023-01-10T22:43:40.907Z,73.60
2023-01-10T22:46:08.335Z,66.17
2023-01-10T22:48:36.407Z,70.33
2023-01-10T22:51:05.332Z,67.87
2023-01-10T22:53:32.789Z,62.80
2023-01-10T22:56:04.584Z,68.03
2023-01-10T22:58:31.960Z,64.37
2023-01-10T23:00:59.035Z,61.20
2023-01-10T23:03:26.054Z,63.57
2023-01-10T23:05:57.138Z,63.20
2023-01-10T23:08:25.656Z,61.83
2023-01-10T23:10:54.217Z,63.27
2023-01-10T23:13:23.256Z,59.90
2023-01-10T23:15:57.639Z,61.73
2023-01-10T23:18:25.506Z,65.47
2023-01-10T23:20:52.975Z,61.93
2023-01-10T23:23:19.999Z,65.57
2023-01-10T23:26:01.220Z,68.27
2023-01-10T23:28:38.981Z,68.30
2023-01-10T23:31:07.266Z,62.40
2023-01-10T23:33:34.775Z,74.13
2023-01-10T23:36:02.066Z,62.97
2023-01-10T23:38:28.997Z,58.33
2023-01-10T23:40:56.144Z,62.27
2023-01-10T23:43:24.037Z,68.83
2023-01-10T23:45:51.256Z,59.10
2023-01-10T23:48:18.919Z,59.37
2023-01-10T23:50:49.713Z,62.73
2023-01-10T23:53:17.627Z,63.70
2023-01-10T23:55:44.728Z,60.13
2023-01-10T23:58:12.273Z,59.13
